createdAt,value
2019-02-08T00:00:50.693Z,-1.83
2019-02-08T00:01:50.644Z,-1.85
2019-02-08T00:02:50.651Z,-1.85
2019-02-08T00:03:50.652Z,-1.86
2019-02-08T00:04:50.613Z,-1.86
2019-02-08T00:05:50.635Z,-2.07
2019-02-08T00:06:51.973Z,-2.16
2019-02-08T00:07:50.585Z,-2.19
2019-02-08T00:08:50.587Z,-2.18
2019-02-08T00:09:50.567Z,-2.16
2019-02-08T00:10:50.568Z,-2.24
2019-02-08T00:11:50.547Z,-2.19
2019-02-08T00:12:50.571Z,-2.19
2019-02-08T00:13:50.523Z,-2.18
2019-02-08T00:14:50.511Z,-2.19
2019-02-08T00:15:50.520Z,-2.18
2019-02-08T00:16:50.491Z,-2.16
2019-02-08T00:17:50.485Z,-2.18
2019-02-08T00:18:50.519Z,-2.06
2019-02-08T00:19:50.464Z,-2.03
2019-02-08T00:20:50.453Z,-2.00
2019-02-08T00:21:50.435Z,-2.00
2019-02-08T00:22:50.437Z,-1.92
2019-02-08T00:23:50.456Z,-1.95
2019-02-08T00:24:50.412Z,-2.03
2019-02-08T00:25:50.395Z,-2.01
2019-02-08T00:26:50.407Z,-1.92
2019-02-08T00:27:50.384Z,-1.92
2019-02-08T00:28:50.364Z,-1.82
2019-02-08T00:29:50.399Z,-1.85
2019-02-08T00:30:50.355Z,-1.88
2019-02-08T00:31:50.353Z,-1.83
2019-02-08T00:32:50.354Z,-1.82
2019-02-08T00:33:50.321Z,-1.83
2019-02-08T00:34:50.314Z,-1.92
2019-02-08T00:35:50.332Z,-1.85
2019-02-08T00:36:50.300Z,-1.88
2019-02-08T00:37:50.270Z,-1.80
2019-02-08T00:38:50.276Z,-1.88
2019-02-08T00:39:50.272Z,-1.80
2019-02-08T00:40:50.282Z,-1.78
2019-02-08T00:41:50.233Z,-1.77
2019-02-08T00:42:50.237Z,-1.83
2019-02-08T00:43:50.209Z,-2.03
2019-02-08T00:44:50.200Z,-2.03
2019-02-08T00:45:50.195Z,-2.03
2019-02-08T00:46:50.249Z,-2.07
2019-02-08T00:47:50.168Z,-2.01
2019-02-08T00:48:50.160Z,-2.01
2019-02-08T00:49:50.150Z,-2.21
2019-02-08T00:50:50.135Z,-2.22
2019-02-08T00:51:50.133Z,-2.35
2019-02-08T00:52:50.129Z,-2.33
2019-02-08T00:53:50.105Z,-2.32
2019-02-08T00:54:50.099Z,-2.37
2019-02-08T00:55:50.084Z,-2.32
2019-02-08T00:56:50.117Z,-2.33
2019-02-08T00:57:50.071Z,-2.33
2019-02-08T00:58:50.053Z,-2.28
2019-02-08T00:59:50.051Z,-2.35
2019-02-08T01:00:50.057Z,-2.29
2019-02-08T01:01:50.026Z,-2.35
2019-02-08T01:02:50.018Z,-2.33
2019-02-08T01:03:50.004Z,-2.24
2019-02-08T01:04:49.994Z,-2.29
2019-02-08T01:05:49.995Z,-2.29
2019-02-08T01:06:49.970Z,-2.41
2019-02-08T01:07:49.994Z,-2.50
2019-02-08T01:08:49.952Z,-2.44
2019-02-08T01:09:49.943Z,-2.38
2019-02-08T01:10:49.951Z,-2.28
2019-02-08T01:11:49.918Z,-2.37
2019-02-08T01:12:49.909Z,-2.33
2019-02-08T01:13:49.947Z,-2.24
2019-02-08T01:14:49.902Z,-2.25
2019-02-08T01:15:49.877Z,-2.22
2019-02-08T01:16:49.868Z,-2.19
2019-02-08T01:17:49.857Z,-2.22
2019-02-08T01:18:49.866Z,-2.14
2019-02-08T01:19:49.872Z,-2.26
2019-02-08T01:20:49.825Z,-2.44
2019-02-08T01:21:49.816Z,-2.55
2019-02-08T01:22:49.815Z,-2.64
2019-02-08T01:23:49.832Z,-2.69
2019-02-08T01:24:49.790Z,-2.65
2019-02-08T01:25:49.791Z,-2.69
2019-02-08T01:26:49.764Z,-2.69
2019-02-08T01:27:49.754Z,-2.62
2019-02-08T01:28:49.738Z,-2.68
2019-02-08T01:29:49.769Z,-2.69
2019-02-08T01:30:49.719Z,-2.86
2019-02-08T01:31:49.726Z,-2.79
2019-02-08T01:32:49.701Z,-2.72
2019-02-08T01:33:49.691Z,-2.76
2019-02-08T01:34:49.675Z,-2.65
2019-02-08T01:35:49.709Z,-2.56
2019-02-08T01:36:49.658Z,-2.61
2019-02-08T01:37:49.642Z,-2.61
2019-02-08T01:38:49.639Z,-2.61
2019-02-08T01:39:49.634Z,-2.61
2019-02-08T01:40:49.634Z,-2.61
2019-02-08T01:41:49.642Z,-2.68
2019-02-08T01:42:49.594Z,-2.56
2019-02-08T01:43:49.591Z,-2.59
2019-02-08T01:44:49.572Z,-2.61
2019-02-08T01:45:49.597Z,-2.74
2019-02-08T01:46:49.567Z,-2.71
2019-02-08T01:47:49.598Z,-2.80
2019-02-08T01:48:49.538Z,-2.79
2019-02-08T01:49:49.520Z,-2.72
2019-02-08T01:50:49.509Z,-2.84
2019-02-08T01:51:49.514Z,-2.69
2019-02-08T01:52:49.488Z,-2.72
2019-02-08T01:53:49.516Z,-2.83
2019-02-08T01:54:49.471Z,-2.82
2019-02-08T01:55:49.472Z,-2.79
2019-02-08T01:56:49.449Z,-2.82
2019-02-08T01:57:49.453Z,-2.83
2019-02-08T01:58:49.422Z,-2.72
2019-02-08T01:59:49.450Z,-2.79
2019-02-08T02:00:49.415Z,-2.72
2019-02-08T02:01:49.401Z,-2.71
2019-02-08T02:02:49.382Z,-2.84
2019-02-08T02:03:49.388Z,-2.69
2019-02-08T02:04:49.404Z,-2.74
2019-02-08T02:05:49.350Z,-2.82
2019-02-08T02:06:49.356Z,-2.82
2019-02-08T02:07:49.339Z,-2.82
2019-02-08T02:08:49.321Z,-2.89
2019-02-08T02:09:49.303Z,-2.84
2019-02-08T02:10:49.353Z,-2.87
2019-02-08T02:11:49.292Z,-2.86
2019-02-08T02:12:49.274Z,-2.82
2019-02-08T02:13:49.289Z,-2.83
2019-02-08T02:14:49.251Z,-2.82
2019-02-08T02:15:49.249Z,-2.77
2019-02-08T02:16:49.282Z,-2.80
2019-02-08T02:17:49.220Z,-2.79
2019-02-08T02:18:49.209Z,-2.84
2019-02-08T02:19:49.203Z,-2.83
2019-02-08T02:20:49.192Z,-2.84
2019-02-08T02:21:49.183Z,-2.87
2019-02-08T02:22:49.203Z,-2.82
2019-02-08T02:23:55.883Z,-2.90
2019-02-08T02:24:50.142Z,-2.90
2019-02-08T02:25:49.133Z,-2.89
2019-02-08T02:26:49.143Z,-2.83
2019-02-08T02:27:49.150Z,-2.82
2019-02-08T02:28:49.101Z,-2.83
2019-02-08T02:29:49.099Z,-2.77
2019-02-08T02:30:49.085Z,-2.83
2019-02-08T02:31:49.092Z,-2.82
2019-02-08T02:32:49.075Z,-2.79
2019-02-08T02:33:49.099Z,-2.79
2019-02-08T02:34:49.043Z,-2.72
2019-02-08T02:35:49.042Z,-2.69
2019-02-08T02:36:49.018Z,-2.71
2019-02-08T02:37:49.015Z,-2.71
2019-02-08T02:38:49.032Z,-2.71
2019-02-08T02:39:48.988Z,-2.66
2019-02-08T02:40:48.994Z,-2.65
2019-02-08T02:41:48.964Z,-2.58
2019-02-08T02:42:48.955Z,-2.66
2019-02-08T02:43:48.983Z,-2.64
2019-02-08T02:44:48.950Z,-2.64
2019-02-08T02:45:48.928Z,-2.65
2019-02-08T02:46:48.909Z,-2.58
2019-02-08T02:47:48.901Z,-2.71
2019-02-08T02:48:48.946Z,-2.66
2019-02-08T02:49:48.885Z,-2.77
2019-02-08T02:50:48.877Z,-2.65
2019-02-08T02:51:48.864Z,-2.66
2019-02-08T02:52:48.851Z,-2.64
2019-02-08T02:53:48.872Z,-2.65
2019-02-08T02:54:48.870Z,-2.69
2019-02-08T02:55:48.819Z,-2.68
2019-02-08T02:56:48.811Z,-2.72
2019-02-08T02:57:48.823Z,-2.72
2019-02-08T02:58:48.825Z,-2.68
2019-02-08T02:59:48.775Z,-2.77
2019-02-08T03:00:48.762Z,-2.76
2019-02-08T03:01:48.756Z,-2.80
2019-02-08T03:02:48.766Z,-2.80
2019-02-08T03:03:48.735Z,-2.69
2019-02-08T03:04:48.727Z,-2.77
2019-02-08T03:05:48.710Z,-2.77
2019-02-08T03:06:48.706Z,-2.80
2019-02-08T03:07:48.691Z,-2.80
2019-02-08T03:08:48.695Z,-2.80
2019-02-08T03:09:48.673Z,-2.71
2019-02-08T03:10:48.663Z,-2.71
2019-02-08T03:11:48.652Z,-2.71
2019-02-08T03:12:48.635Z,-2.79
2019-02-08T03:13:48.627Z,-2.80
2019-02-08T03:14:48.656Z,-2.80
2019-02-08T03:15:48.630Z,-2.69
2019-02-08T03:16:48.590Z,-2.80
2019-02-08T03:17:48.583Z,-2.82
2019-02-08T03:18:48.574Z,-2.79
2019-02-08T03:19:48.570Z,-2.68
2019-02-08T03:20:48.595Z,-2.79
2019-02-08T03:21:48.580Z,-2.72
2019-02-08T03:22:48.533Z,-2.74
2019-02-08T03:23:48.563Z,-2.80
2019-02-08T03:24:48.509Z,-2.79
2019-02-08T03:25:48.496Z,-2.77
2019-02-08T03:26:48.501Z,-2.82
2019-02-08T03:27:48.477Z,-2.76
2019-02-08T03:28:48.512Z,-2.86
2019-02-08T03:29:48.458Z,-2.69
2019-02-08T03:30:48.464Z,-2.74
2019-02-08T03:31:48.460Z,-2.86
2019-02-08T03:32:48.424Z,-2.82
2019-02-08T03:33:48.411Z,-2.69
2019-02-08T03:34:48.442Z,-2.76
2019-02-08T03:35:48.401Z,-2.72
2019-02-08T03:36:48.379Z,-2.74
2019-02-08T03:37:48.371Z,-2.84
2019-02-08T03:38:48.391Z,-2.74
2019-02-08T03:39:48.347Z,-2.71
2019-02-08T03:40:48.374Z,-2.80
2019-02-08T03:41:48.335Z,-2.87
2019-02-08T03:42:48.320Z,-2.69
2019-02-08T03:43:48.312Z,-2.71
2019-02-08T03:44:48.301Z,-2.84
2019-02-08T03:45:48.283Z,-2.71
2019-02-08T03:46:48.324Z,-2.68
2019-02-08T03:47:48.273Z,-2.83
2019-02-08T03:48:48.254Z,-2.84
2019-02-08T03:49:48.239Z,-2.84
2019-02-08T03:50:48.271Z,-2.79
2019-02-08T03:51:48.221Z,-2.87
2019-02-08T03:52:48.252Z,-2.71
2019-02-08T03:53:48.245Z,-2.90
2019-02-08T03:54:49.582Z,-2.79
2019-02-08T03:55:48.238Z,-2.74
2019-02-08T03:56:48.172Z,-2.69
2019-02-08T03:57:48.156Z,-2.82
2019-02-08T03:58:48.144Z,-2.82
2019-02-08T03:59:48.148Z,-2.77
2019-02-08T04:00:48.124Z,-2.66
2019-02-08T04:01:48.122Z,-2.82
2019-02-08T04:02:48.110Z,-2.79
2019-02-08T04:03:48.149Z,-2.72
2019-02-08T04:04:48.083Z,-2.72
2019-02-08T04:05:48.071Z,-2.82
2019-02-08T04:06:48.101Z,-2.72
2019-02-08T04:07:48.050Z,-2.79
2019-02-08T04:08:48.084Z,-2.69
2019-02-08T04:09:48.035Z,-2.82
2019-02-08T04:10:48.033Z,-2.72
2019-02-08T04:11:48.010Z,-2.84
2019-02-08T04:12:47.998Z,-2.84
2019-02-08T04:13:48.011Z,-2.71
2019-02-08T04:14:48.017Z,-2.71
2019-02-08T04:15:47.969Z,-2.76
2019-02-08T04:16:47.954Z,-2.80
2019-02-08T04:17:47.952Z,-2.74
2019-02-08T04:18:47.931Z,-2.79
2019-02-08T04:19:47.924Z,-2.84
2019-02-08T04:20:47.945Z,-2.82
2019-02-08T04:21:47.926Z,-2.79
2019-02-08T04:22:47.895Z,-2.77
2019-02-08T04:23:47.914Z,-2.82
2019-02-08T04:24:47.887Z,-2.82
2019-02-08T04:25:47.858Z,-2.95
2019-02-08T04:26:47.857Z,-2.94
2019-02-08T04:27:47.836Z,-2.95
2019-02-08T04:28:47.829Z,-2.95
2019-02-08T04:29:47.869Z,-3.00
2019-02-08T04:30:48.752Z,-2.94
2019-02-08T04:31:47.797Z,-2.90
2019-02-08T04:32:47.786Z,-2.94
2019-02-08T04:33:47.772Z,-2.90
2019-02-08T04:34:47.800Z,-2.90
2019-02-08T04:35:47.756Z,-2.89
2019-02-08T04:36:47.772Z,-2.90
2019-02-08T04:37:47.735Z,-3.01
2019-02-08T04:38:47.721Z,-2.90
2019-02-08T04:39:47.753Z,-2.97
2019-02-08T04:40:47.695Z,-2.94
2019-02-08T04:41:47.691Z,-2.93
2019-02-08T04:42:47.677Z,-2.97
2019-02-08T04:43:47.664Z,-2.97
2019-02-08T04:44:47.688Z,-2.98
2019-02-08T04:45:47.684Z,-3.00
2019-02-08T04:46:47.641Z,-2.97
2019-02-08T04:47:47.631Z,-2.98
2019-02-08T04:48:47.614Z,-3.10
2019-02-08T04:49:47.607Z,-3.04
2019-02-08T04:50:47.612Z,-3.00
2019-02-08T04:51:47.633Z,-3.08
2019-02-08T04:52:47.573Z,-3.08
2019-02-08T04:53:47.577Z,-3.05
2019-02-08T04:54:47.557Z,-3.01
2019-02-08T04:55:47.554Z,-3.00
2019-02-08T04:56:47.531Z,-3.00
2019-02-08T04:57:47.572Z,-3.08
2019-02-08T04:58:47.534Z,-3.07
2019-02-08T04:59:47.535Z,-3.02
2019-02-08T05:00:47.494Z,-3.13
2019-02-08T05:01:47.484Z,-3.21
2019-02-08T05:02:47.471Z,-3.23
2019-02-08T05:03:47.461Z,-3.23
2019-02-08T05:04:48.296Z,-3.31
2019-02-08T05:05:47.464Z,-3.34
2019-02-08T05:06:47.433Z,-3.26
2019-02-08T05:07:47.545Z,-3.31
2019-02-08T05:08:47.485Z,-3.41
2019-02-08T05:09:47.438Z,-3.40
2019-02-08T05:10:47.452Z,-3.34
2019-02-08T05:11:47.484Z,-3.51
2019-02-08T05:12:47.406Z,-3.49
2019-02-08T05:13:47.406Z,-3.52
2019-02-08T05:14:47.399Z,-3.57
2019-02-08T05:15:47.451Z,-3.58
2019-02-08T05:16:48.285Z,-3.54
2019-02-08T05:17:47.323Z,-3.51
2019-02-08T05:18:48.273Z,-3.52
2019-02-08T05:19:47.308Z,-3.61
2019-02-08T05:20:47.834Z,-3.58
2019-02-08T05:21:47.316Z,-3.49
2019-02-08T05:22:47.330Z,-3.52
2019-02-08T05:23:47.267Z,-3.57
2019-02-08T05:24:47.263Z,-3.47
2019-02-08T05:25:47.235Z,-3.55
2019-02-08T05:26:47.216Z,-3.55
2019-02-08T05:27:47.202Z,-3.51
2019-02-08T05:28:47.233Z,-3.59
2019-02-08T05:29:47.179Z,-3.64
2019-02-08T05:30:47.171Z,-3.69
2019-02-08T05:31:47.162Z,-3.68
2019-02-08T05:32:47.151Z,-3.77
2019-02-08T05:33:47.324Z,-3.80
2019-02-08T05:34:47.139Z,-3.92
2019-02-08T05:35:47.161Z,-3.98
2019-02-08T05:36:47.126Z,-4.04
2019-02-08T05:37:47.317Z,-4.13
2019-02-08T05:38:47.130Z,-4.20
2019-02-08T05:39:47.079Z,-4.16
2019-02-08T05:40:47.067Z,-4.17
2019-02-08T05:41:47.050Z,-4.27
2019-02-08T05:42:47.047Z,-4.27
2019-02-08T05:43:47.032Z,-4.26
2019-02-08T05:44:47.056Z,-4.33
2019-02-08T05:45:47.033Z,-4.36
2019-02-08T05:46:46.997Z,-4.40
2019-02-08T05:47:46.989Z,-4.54
2019-02-08T05:48:47.025Z,-4.45
2019-02-08T05:49:46.981Z,-4.48
2019-02-08T05:50:46.956Z,-4.49
2019-02-08T05:51:47.016Z,-4.44
2019-02-08T05:52:46.934Z,-4.51
2019-02-08T05:53:46.928Z,-4.54
2019-02-08T05:54:54.240Z,-4.59
2019-02-08T05:55:47.904Z,-4.52
2019-02-08T05:56:46.978Z,-4.55
2019-02-08T05:57:46.931Z,-4.66
2019-02-08T05:58:46.882Z,-4.56
2019-02-08T05:59:46.870Z,-4.56
2019-02-08T06:00:46.855Z,-4.63
2019-02-08T06:01:46.848Z,-4.65
2019-02-08T06:02:46.862Z,-4.58
2019-02-08T06:03:46.868Z,-4.62
2019-02-08T06:04:46.827Z,-4.67
2019-02-08T06:05:46.853Z,-4.59
2019-02-08T06:06:46.786Z,-4.56
2019-02-08T06:07:46.788Z,-4.56
2019-02-08T06:08:46.767Z,-4.59
2019-02-08T06:09:46.763Z,-4.44
2019-02-08T06:10:46.769Z,-4.58
2019-02-08T06:11:46.773Z,-4.58
2019-02-08T06:12:46.726Z,-4.59
2019-02-08T06:13:46.722Z,-4.69
2019-02-08T06:14:46.717Z,-4.54
2019-02-08T06:15:46.702Z,-4.62
2019-02-08T06:16:47.085Z,-4.65
2019-02-08T06:17:46.714Z,-4.76
2019-02-08T06:18:46.677Z,-4.81
2019-02-08T06:19:46.714Z,-4.66
2019-02-08T06:20:46.653Z,-4.59
2019-02-08T06:21:46.634Z,-4.76
2019-02-08T06:22:46.628Z,-4.65
2019-02-08T06:23:46.614Z,-4.70
2019-02-08T06:24:46.622Z,-4.77
2019-02-08T06:25:46.642Z,-4.77
2019-02-08T06:26:46.586Z,-4.87
2019-02-08T06:27:46.574Z,-4.87
2019-02-08T06:28:46.568Z,-4.87
2019-02-08T06:29:46.551Z,-5.01
2019-02-08T06:30:46.546Z,-5.01
2019-02-08T06:31:46.573Z,-4.99
2019-02-08T06:32:46.524Z,-4.95
2019-02-08T06:33:46.530Z,-4.94
2019-02-08T06:34:46.500Z,-5.05
2019-02-08T06:35:46.494Z,-4.99
2019-02-08T06:36:46.479Z,-5.03
2019-02-08T06:37:46.511Z,-5.09
2019-02-08T06:38:46.467Z,-5.05
2019-02-08T06:39:46.460Z,-5.13
2019-02-08T06:40:46.498Z,-5.03
2019-02-08T06:41:46.436Z,-5.08
2019-02-08T06:42:46.419Z,-5.13
2019-02-08T06:43:46.450Z,-5.05
2019-02-08T06:44:46.404Z,-5.03
2019-02-08T06:45:46.391Z,-5.08
2019-02-08T06:46:46.420Z,-5.09
2019-02-08T06:47:46.368Z,-5.01
2019-02-08T06:48:46.398Z,-5.09
2019-02-08T06:49:46.356Z,-4.93
2019-02-08T06:50:46.355Z,-5.01
2019-02-08T06:51:46.323Z,-4.88
2019-02-08T06:52:46.314Z,-5.01
2019-02-08T06:53:46.317Z,-4.93
2019-02-08T06:54:46.343Z,-4.85
2019-02-08T06:55:46.297Z,-4.84
2019-02-08T06:56:46.281Z,-4.83
2019-02-08T06:57:46.270Z,-4.85
2019-02-08T06:58:46.264Z,-4.88
2019-02-08T06:59:46.236Z,-4.87
2019-02-08T07:00:46.324Z,-4.87
2019-02-08T07:01:46.235Z,-4.90
2019-02-08T07:02:46.217Z,-4.84
2019-02-08T07:03:46.443Z,-4.93
2019-02-08T07:04:46.184Z,-4.90
2019-02-08T07:05:46.179Z,-4.93
2019-02-08T07:06:46.163Z,-4.79
2019-02-08T07:07:46.216Z,-4.87
2019-02-08T07:08:46.181Z,-4.99
2019-02-08T07:09:46.138Z,-4.94
2019-02-08T07:10:46.132Z,-4.93
2019-02-08T07:11:46.117Z,-4.88
2019-02-08T07:12:46.103Z,-4.94
2019-02-08T07:13:46.089Z,-4.94
2019-02-08T07:14:46.120Z,-4.90
2019-02-08T07:15:46.117Z,-4.93
2019-02-08T07:16:46.062Z,-4.84
2019-02-08T07:17:46.049Z,-4.91
2019-02-08T07:18:46.055Z,-4.97
2019-02-08T07:19:46.033Z,-4.88
2019-02-08T07:20:46.074Z,-4.91
2019-02-08T07:21:46.009Z,-4.93
2019-02-08T07:22:46.007Z,-4.93
2019-02-08T07:23:46.007Z,-4.87
2019-02-08T07:24:46.019Z,-4.67
2019-02-08T07:25:45.983Z,-4.63
2019-02-08T07:26:45.958Z,-4.67
2019-02-08T07:27:45.975Z,-4.67
2019-02-08T07:28:45.957Z,-4.73
2019-02-08T07:29:45.970Z,-4.73
2019-02-08T07:30:45.916Z,-4.74
2019-02-08T07:31:45.924Z,-4.70
2019-02-08T07:32:45.924Z,-4.67
2019-02-08T07:33:45.894Z,-4.65
2019-02-08T07:34:45.891Z,-4.62
2019-02-08T07:35:45.933Z,-4.70
2019-02-08T07:36:45.860Z,-4.67
2019-02-08T07:37:45.853Z,-4.56
2019-02-08T07:38:46.614Z,-4.62
2019-02-08T07:39:45.861Z,-4.63
2019-02-08T07:40:45.811Z,-4.65
2019-02-08T07:41:45.803Z,-4.72
2019-02-08T07:42:45.815Z,-4.72
2019-02-08T07:43:45.780Z,-4.69
2019-02-08T07:44:45.792Z,-4.62
2019-02-08T07:45:45.803Z,-4.58
2019-02-08T07:46:45.784Z,-4.59
2019-02-08T07:47:45.754Z,-4.56
2019-02-08T07:48:45.725Z,-4.69
2019-02-08T07:49:45.723Z,-4.51
2019-02-08T07:50:45.705Z,-4.58
2019-02-08T07:51:45.750Z,-4.56
2019-02-08T07:52:45.680Z,-4.59
2019-02-08T07:53:45.675Z,-4.58
2019-02-08T07:54:45.664Z,-4.63
2019-02-08T07:55:45.664Z,-4.63
2019-02-08T07:56:45.659Z,-4.67
2019-02-08T07:57:45.668Z,-4.67
2019-02-08T07:58:45.634Z,-4.63
2019-02-08T07:59:45.612Z,-4.65
2019-02-08T08:00:45.600Z,-4.62
2019-02-08T08:01:45.640Z,-4.72
2019-02-08T08:02:45.582Z,-4.74
2019-02-08T08:03:45.564Z,-4.58
2019-02-08T08:04:45.601Z,-4.59
2019-02-08T08:05:45.578Z,-4.67
2019-02-08T08:06:45.545Z,-4.58
2019-02-08T08:07:45.534Z,-4.58
2019-02-08T08:08:45.535Z,-4.62
2019-02-08T08:09:45.531Z,-4.49
2019-02-08T08:10:45.527Z,-4.56
2019-02-08T08:11:45.523Z,-4.46
2019-02-08T08:12:45.494Z,-4.41
2019-02-08T08:13:45.466Z,-4.51
2019-02-08T08:14:45.475Z,-4.46
2019-02-08T08:15:45.447Z,-4.45
2019-02-08T08:16:45.476Z,-4.49
2019-02-08T08:17:45.422Z,-4.40
2019-02-08T08:18:45.443Z,-4.41
2019-02-08T08:19:45.414Z,-4.41
2019-02-08T08:20:45.389Z,-4.30
2019-02-08T08:21:45.386Z,-4.23
2019-02-08T08:22:45.404Z,-4.20
2019-02-08T08:23:45.365Z,-4.15
2019-02-08T08:24:45.398Z,-3.99
2019-02-08T08:25:45.341Z,-3.57
2019-02-08T08:26:45.328Z,-3.07
2019-02-08T08:27:45.336Z,-2.56
2019-02-08T08:28:45.304Z,-1.93
2019-02-08T08:29:45.302Z,-1.57
2019-02-08T08:30:45.318Z,-1.10
2019-02-08T08:31:45.290Z,-0.70
2019-02-08T08:32:45.265Z,-0.34
2019-02-08T08:33:45.255Z,-0.49
2019-02-08T08:34:45.298Z,-0.34
2019-02-08T08:35:45.250Z,-0.01
2019-02-08T08:36:45.228Z,-0.13
2019-02-08T08:37:45.214Z,0.38
2019-02-08T08:38:45.204Z,0.71
2019-02-08T08:39:45.197Z,1.63
2019-02-08T08:40:45.224Z,2.26
2019-02-08T08:41:45.176Z,2.47
2019-02-08T08:42:45.159Z,2.32
2019-02-08T08:43:45.169Z,2.40
2019-02-08T08:44:45.139Z,2.61
2019-02-08T08:45:45.163Z,2.74
2019-02-08T08:46:45.120Z,2.48
2019-02-08T08:47:45.107Z,3.07
2019-02-08T08:48:45.099Z,3.57
2019-02-08T08:49:45.087Z,3.89
2019-02-08T08:50:45.124Z,4.39
2019-02-08T08:51:45.100Z,4.56
2019-02-08T08:52:45.063Z,4.64
2019-02-08T08:53:45.089Z,4.69
2019-02-08T08:54:45.051Z,4.72
2019-02-08T08:55:45.063Z,4.46
2019-02-08T08:56:45.031Z,4.35
2019-02-08T08:57:45.025Z,4.79
2019-02-08T08:58:45.013Z,4.91
2019-02-08T08:59:45.024Z,4.99
2019-02-08T09:00:44.978Z,4.46
2019-02-08T09:01:44.964Z,4.02
2019-02-08T09:02:44.965Z,3.92
2019-02-08T09:03:44.947Z,4.04
2019-02-08T09:04:44.933Z,3.78
2019-02-08T09:05:45.004Z,3.96
2019-02-08T09:06:44.909Z,3.81
2019-02-08T09:07:44.901Z,3.57
2019-02-08T09:08:44.932Z,3.67
2019-02-08T09:09:44.880Z,3.68
2019-02-08T09:10:44.878Z,3.39
2019-02-08T09:11:45.035Z,3.81
2019-02-08T09:12:44.849Z,3.63
2019-02-08T09:13:44.838Z,3.53
2019-02-08T09:14:44.832Z,2.86
2019-02-08T09:15:44.954Z,2.87
2019-02-08T09:16:44.963Z,3.08
2019-02-08T09:17:44.819Z,3.28
2019-02-08T09:18:44.787Z,3.54
2019-02-08T09:19:44.768Z,3.84
2019-02-08T09:20:44.886Z,4.06
2019-02-08T09:21:44.742Z,3.98
2019-02-08T09:22:45.630Z,3.84
2019-02-08T09:23:44.903Z,3.99
2019-02-08T09:24:44.708Z,4.08
2019-02-08T09:25:49.762Z,4.26
2019-02-08T09:26:46.768Z,4.49
2019-02-08T09:27:44.830Z,4.18
2019-02-08T09:28:44.729Z,4.11
2019-02-08T09:29:44.833Z,4.20
2019-02-08T09:30:44.650Z,4.26
2019-02-08T09:31:44.640Z,4.75
2019-02-08T09:32:44.628Z,4.87
2019-02-08T09:33:44.621Z,5.29
2019-02-08T09:34:46.217Z,5.55
2019-02-08T09:35:44.616Z,5.67
2019-02-08T09:36:47.602Z,5.59
2019-02-08T09:37:44.580Z,5.78
2019-02-08T09:38:44.792Z,5.11
2019-02-08T09:39:44.549Z,4.54
2019-02-08T09:40:44.544Z,4.88
2019-02-08T09:41:44.534Z,5.24
2019-02-08T09:42:44.607Z,5.35
2019-02-08T09:43:44.719Z,5.41
2019-02-08T09:44:44.531Z,5.65
2019-02-08T09:45:44.490Z,5.52
2019-02-08T09:46:44.489Z,5.66
2019-02-08T09:47:44.476Z,5.99
2019-02-08T09:48:44.501Z,5.62
2019-02-08T09:49:44.442Z,5.51
2019-02-08T09:50:44.433Z,5.44
2019-02-08T09:51:47.245Z,5.24
2019-02-08T09:52:44.476Z,5.27
2019-02-08T09:53:45.251Z,5.11
2019-02-08T09:54:44.396Z,4.75
2019-02-08T09:55:44.412Z,4.74
2019-02-08T09:56:44.372Z,4.84
2019-02-08T09:57:44.394Z,4.59
2019-02-08T09:58:44.359Z,4.75
2019-02-08T09:59:44.329Z,4.42
2019-02-08T10:00:44.339Z,4.74
2019-02-08T10:01:44.336Z,4.67
2019-02-08T10:02:44.342Z,4.54
2019-02-08T10:03:44.390Z,4.50
2019-02-08T10:04:44.283Z,4.75
2019-02-08T10:05:44.298Z,4.90
2019-02-08T10:06:44.269Z,5.06
2019-02-08T10:07:44.258Z,5.05
2019-02-08T10:08:44.237Z,5.22
2019-02-08T10:09:44.268Z,5.42
2019-02-08T10:10:44.229Z,5.51
2019-02-08T10:11:44.397Z,5.37
2019-02-08T10:12:44.197Z,5.20
2019-02-08T10:13:44.769Z,5.29
2019-02-08T10:14:44.627Z,5.51
2019-02-08T10:15:44.162Z,5.38
2019-02-08T10:16:44.213Z,5.59
2019-02-08T10:17:44.140Z,6.19
2019-02-08T10:18:44.130Z,6.81
2019-02-08T10:19:44.170Z,6.21
2019-02-08T10:20:44.163Z,6.28
2019-02-08T10:21:44.101Z,6.82
2019-02-08T10:22:44.093Z,6.90
2019-02-08T10:23:44.090Z,6.30
2019-02-08T10:24:44.069Z,5.95
2019-02-08T10:25:44.056Z,6.40
2019-02-08T10:26:44.078Z,6.24
2019-02-08T10:27:44.038Z,6.11
2019-02-08T10:28:44.037Z,5.81
2019-02-08T10:29:44.045Z,5.69
2019-02-08T10:30:44.038Z,6.19
2019-02-08T10:31:44.050Z,6.33
2019-02-08T10:32:43.983Z,6.01
2019-02-08T10:33:43.990Z,5.30
2019-02-08T10:34:43.966Z,5.59
2019-02-08T10:35:43.957Z,5.55
2019-02-08T10:36:43.944Z,5.98
2019-02-08T10:37:43.988Z,5.98
2019-02-08T10:38:43.926Z,5.96
2019-02-08T10:39:44.221Z,5.92
2019-02-08T10:40:43.892Z,6.24
2019-02-08T10:41:43.885Z,6.28
2019-02-08T10:42:43.884Z,6.57
2019-02-08T10:43:43.998Z,6.89
2019-02-08T10:44:44.001Z,6.86
2019-02-08T10:45:43.876Z,5.85
2019-02-08T10:46:44.024Z,6.35
2019-02-08T10:47:43.819Z,6.96
2019-02-08T10:48:43.810Z,7.30
2019-02-08T10:49:43.802Z,6.96
2019-02-08T10:50:43.786Z,6.79
2019-02-08T10:51:43.835Z,6.38
2019-02-08T10:52:43.950Z,6.53
2019-02-08T10:53:43.751Z,6.14
2019-02-08T10:54:43.760Z,6.35
2019-02-08T10:55:43.862Z,6.45
2019-02-08T10:56:43.714Z,6.16
2019-02-08T10:57:43.748Z,6.20
2019-02-08T10:58:43.707Z,7.12
2019-02-08T10:59:43.697Z,8.32
2019-02-08T11:00:44.541Z,8.76
2019-02-08T11:01:43.678Z,7.55
2019-02-08T11:02:43.666Z,6.76
2019-02-08T11:03:43.683Z,6.93
2019-02-08T11:04:43.634Z,7.14
2019-02-08T11:05:43.850Z,6.99
2019-02-08T11:06:43.615Z,6.79
2019-02-08T11:07:43.646Z,6.39
2019-02-08T11:08:43.601Z,6.82
2019-02-08T11:09:44.539Z,8.03
2019-02-08T11:10:43.770Z,7.96
2019-02-08T11:11:44.544Z,7.54
2019-02-08T11:12:43.554Z,7.79
2019-02-08T11:13:43.584Z,8.10
2019-02-08T11:14:43.528Z,7.76
2019-02-08T11:15:43.735Z,8.17
2019-02-08T11:16:43.511Z,8.06
2019-02-08T11:17:43.568Z,8.80
2019-02-08T11:18:43.493Z,8.24
2019-02-08T11:19:43.491Z,7.67
2019-02-08T11:20:43.480Z,7.96
2019-02-08T11:21:43.446Z,8.39
2019-02-08T11:22:43.459Z,7.63
2019-02-08T11:23:43.478Z,7.66
2019-02-08T11:24:43.414Z,7.41
2019-02-08T11:25:43.557Z,6.82
2019-02-08T11:26:43.398Z,6.73
2019-02-08T11:27:43.383Z,6.83
2019-02-08T11:28:43.374Z,6.25
2019-02-08T11:29:43.406Z,6.40
2019-02-08T11:30:44.042Z,6.32
2019-02-08T11:31:43.360Z,6.36
2019-02-08T11:32:43.755Z,6.17
2019-02-08T11:33:43.333Z,7.05
2019-02-08T11:34:43.306Z,7.24
2019-02-08T11:35:43.376Z,7.86
2019-02-08T11:36:43.286Z,7.85
2019-02-08T11:37:43.285Z,8.42
2019-02-08T11:38:43.264Z,7.99
2019-02-08T11:39:43.257Z,7.71
2019-02-08T11:40:43.248Z,6.69
2019-02-08T11:41:43.268Z,6.54
2019-02-08T11:42:43.230Z,6.46
2019-02-08T11:43:43.215Z,6.55
2019-02-08T11:44:43.226Z,6.76
2019-02-08T11:45:44.196Z,7.30
2019-02-08T11:46:43.258Z,7.47
2019-02-08T11:47:43.175Z,7.09
2019-02-08T11:48:43.154Z,6.86
2019-02-08T11:49:43.153Z,6.72
2019-02-08T11:50:43.161Z,6.86
2019-02-08T11:51:43.129Z,7.09
2019-02-08T11:52:43.159Z,6.93
2019-02-08T11:53:43.108Z,7.12
2019-02-08T11:54:43.119Z,7.09
2019-02-08T11:55:43.111Z,7.08
2019-02-08T11:56:43.096Z,6.82
2019-02-08T11:57:43.069Z,6.76
2019-02-08T11:58:43.119Z,6.76
2019-02-08T11:59:43.042Z,6.42
2019-02-08T12:00:43.030Z,6.51
2019-02-08T12:01:43.061Z,7.18
2019-02-08T12:02:43.036Z,7.81
2019-02-08T12:03:42.994Z,7.86
2019-02-08T12:04:42.977Z,7.69
2019-02-08T12:05:42.980Z,7.71
2019-02-08T12:06:42.962Z,8.36
2019-02-08T12:07:42.996Z,8.71
2019-02-08T12:08:42.964Z,8.80
2019-02-08T12:09:42.932Z,8.10
2019-02-08T12:10:42.925Z,8.00
2019-02-08T12:11:44.307Z,8.21
2019-02-08T12:12:42.899Z,7.85
2019-02-08T12:13:42.951Z,7.89
2019-02-08T12:14:42.926Z,7.39
2019-02-08T12:15:42.876Z,7.11
2019-02-08T12:16:42.855Z,7.24
2019-02-08T12:17:42.854Z,7.39
2019-02-08T12:18:42.864Z,7.73
2019-02-08T12:19:42.870Z,7.09
2019-02-08T12:20:42.810Z,6.90
2019-02-08T12:21:42.798Z,7.09
2019-02-08T12:22:42.789Z,7.60
2019-02-08T12:23:42.775Z,7.73
2019-02-08T12:24:42.807Z,7.74
2019-02-08T12:25:42.786Z,7.63
2019-02-08T12:26:42.744Z,7.63
2019-02-08T12:27:42.737Z,7.58
2019-02-08T12:28:42.725Z,7.39
2019-02-08T12:29:42.716Z,7.51
2019-02-08T12:30:42.745Z,7.71
2019-02-08T12:31:42.692Z,7.88
2019-02-08T12:32:42.693Z,8.10
2019-02-08T12:33:42.673Z,7.76
2019-02-08T12:34:42.660Z,7.74
2019-02-08T12:35:42.653Z,7.74
2019-02-08T12:36:42.674Z,7.69
2019-02-08T12:37:42.623Z,7.99
2019-02-08T12:38:42.627Z,7.60
2019-02-08T12:39:42.603Z,7.71
2019-02-08T12:40:42.595Z,7.74
2019-02-08T12:41:42.583Z,8.09
2019-02-08T12:42:42.744Z,8.04
2019-02-08T12:43:42.576Z,7.94
2019-02-08T12:44:42.561Z,8.13
2019-02-08T12:45:42.548Z,8.52
2019-02-08T12:46:42.548Z,8.40
2019-02-08T12:47:42.519Z,8.02
2019-02-08T12:48:42.551Z,7.58
2019-02-08T12:49:42.495Z,7.32
2019-02-08T12:50:42.486Z,7.71
2019-02-08T12:51:42.500Z,7.47
2019-02-08T12:52:42.473Z,7.23
2019-02-08T12:53:42.459Z,7.48
2019-02-08T12:54:42.491Z,7.12
2019-02-08T12:55:42.431Z,6.81
2019-02-08T12:56:45.623Z,6.75
2019-02-08T12:57:42.419Z,6.82
2019-02-08T12:58:42.415Z,7.37
2019-02-08T12:59:42.401Z,7.95
2019-02-08T13:00:42.431Z,8.13
2019-02-08T13:01:42.394Z,8.29